Time;durP1;ratioP1;P1;durP2;ratioP2;P2;SDS_P1;SDS_P2;PMS_P1;PMS_P2;Temp;Humidity;BMP_temperature;BMP_pressure;BME280_temperature;BME280_humidity;BME280_pressure;Samples;Min_cycle;Max_cycle;Signal;HPM_P1;HPM_P2
2023/01/20 00:01:03;;;;;;;;;31.50;23.00;;;;;6.61;62.59;100832.53;5083785;27;45520;-61
2023/01/20 00:03:28;;;;;;;;;25.75;25.25;;;;;6.59;62.38;100835.13;5085810;27;45431;-60
2023/01/20 00:05:54;;;;;;;;;24.00;21.25;;;;;6.54;62.01;100828.72;5064806;27;48137;-59
2023/01/20 00:08:19;;;;;;;;;33.50;28.50;;;;;6.59;61.88;100845.75;5078023;27;45431;-59
2023/01/20 00:10:44;;;;;;;;;33.25;24.50;;;;;6.53;62.22;100844.56;5081007;27;45549;-60
2023/01/20 00:13:10;;;;;;;;;24.50;19.50;;;;;6.54;62.38;100849.03;5100667;27;45298;-61
2023/01/20 00:15:35;;;;;;;;;32.00;26.50;;;;;6.51;61.89;100851.56;5103814;27;46108;-59
2023/01/20 00:18:00;;;;;;;;;21.75;18.25;;;;;6.38;62.54;100834.19;5100781;27;45670;-60
2023/01/20 00:20:26;;;;;;;;;20.00;18.50;;;;;6.46;62.21;100860.22;5097147;27;45307;-61
2023/01/20 00:22:51;;;;;;;;;26.75;21.00;;;;;6.45;62.22;100866.38;5101351;27;45431;-60
2023/01/20 00:25:17;;;;;;;;;22.25;16.75;;;;;6.40;62.07;100872.28;5101022;27;56856;-59
2023/01/20 00:27:43;;;;;;;;;16.25;15.50;;;;;6.37;61.98;100865.13;5096578;27;45480;-60
2023/01/20 00:30:09;;;;;;;;;15.75;15.25;;;;;6.27;62.27;100876.16;5111750;27;44983;-59
2023/01/20 00:32:43;;;;;;;;;18.50;17.75;;;;;6.22;62.72;100875.00;5110308;27;45492;-60
2023/01/20 00:35:09;;;;;;;;;19.25;15.50;;;;;6.21;62.70;100873.22;5107792;27;47316;-60
2023/01/20 00:37:35;;;;;;;;;21.00;19.75;;;;;6.02;62.75;100844.94;5110058;27;45353;-59
2023/01/20 00:40:00;;;;;;;;;20.25;15.50;;;;;6.20;63.00;100866.09;5107219;27;45489;-61
2023/01/20 00:42:25;;;;;;;;;27.50;21.25;;;;;6.35;63.55;100885.38;5114217;27;45233;-60
2023/01/20 00:44:51;;;;;;;;;15.00;15.00;;;;;6.28;62.19;100889.47;5107319;27;46005;-60
2023/01/20 00:47:16;;;;;;;;;27.25;19.00;;;;;6.32;62.61;100887.91;5103167;27;45356;-59
2023/01/20 00:49:41;;;;;;;;;30.75;20.50;;;;;6.23;62.65;100866.22;5100669;27;45334;-59
2023/01/20 00:52:07;;;;;;;;;27.25;15.75;;;;;6.34;62.07;100904.78;5113758;27;44950;-60
2023/01/20 00:54:32;;;;;;;;;25.75;19.75;;;;;6.26;62.56;100888.50;5111430;27;45572;-59
2023/01/20 00:56:57;;;;;;;;;23.50;14.50;;;;;6.28;62.06;100902.75;5098960;27;46922;-61
2023/01/20 00:59:23;;;;;;;;;19.75;17.00;;;;;6.26;62.12;100899.13;5100776;27;45409;-60
2023/01/20 01:01:48;;;;;;;;;33.75;28.00;;;;;6.22;62.46;100899.81;5094015;27;45409;-60
2023/01/20 01:04:13;;;;;;;;;27.75;25.25;;;;;6.20;62.46;100901.50;5092880;27;45945;-59
2023/01/20 01:06:39;;;;;;;;;29.25;22.50;;;;;6.22;61.82;100906.84;5096451;27;45365;-60
2023/01/20 01:09:05;;;;;;;;;20.75;18.75;;;;;6.22;62.13;100909.50;5078635;27;45485;-59
2023/01/20 01:11:30;;;;;;;;;33.25;17.00;;;;;5.95;61.87;100861.38;5091812;27;45319;-60
2023/01/20 01:13:56;;;;;;;;;21.75;19.50;;;;;6.16;62.06;100918.09;5098589;27;54461;-58
2023/01/20 01:16:22;;;;;;;;;20.00;16.75;;;;;6.13;62.27;100923.25;5102548;27;45387;-59
2023/01/20 01:18:47;;;;;;;;;23.50;19.00;;;;;6.16;62.45;100915.44;5097580;27;45299;-61
2023/01/20 01:21:15;;;;;;;;;24.75;21.25;;;;;6.17;62.22;100911.03;5094423;27;45325;-58
2023/01/20 01:23:41;;;;;;;;;26.25;21.50;;;;;5.93;62.13;100881.63;5096377;27;46273;-59
2023/01/20 01:26:07;;;;;;;;;23.50;20.25;;;;;6.07;61.60;100918.59;5097354;27;45373;-62
2023/01/20 01:28:32;;;;;;;;;23.50;15.50;;;;;6.06;62.45;100931.78;5093566;27;45303;-60
2023/01/20 01:31:01;;;;;;;;;21.00;17.25;;;;;5.94;62.38;100942.69;5096979;27;45392;-61
2023/01/20 01:33:28;;;;;;;;;27.00;22.75;;;;;5.95;62.60;100944.47;5097293;27;46243;-59
2023/01/20 01:35:57;;;;;;;;;23.00;21.00;;;;;5.95;62.03;100952.44;5094167;27;45313;-61
2023/01/20 01:38:24;;;;;;;;;18.25;17.50;;;;;5.90;62.50;100962.81;5096653;27;45487;-60
2023/01/20 01:40:51;;;;;;;;;22.50;20.75;;;;;5.93;62.89;100962.06;5096801;27;45474;-59
2023/01/20 01:43:29;;;;;;;;;15.50;15.50;;;;;5.97;62.93;100963.16;5092986;27;45516;-60
2023/01/20 01:45:54;;;;;;;;;23.25;13.75;;;;;5.97;62.01;100971.09;5094212;27;45398;-59
2023/01/20 01:48:25;;;;;;;;;25.50;15.50;;;;;5.83;62.36;100939.50;5095022;27;45369;-59
2023/01/20 01:50:55;;;;;;;;;21.00;19.25;;;;;5.93;62.09;100972.66;5095191;27;45366;-60
2023/01/20 01:53:21;;;;;;;;;22.25;18.75;;;;;5.87;62.02;100964.41;5090644;27;46651;-59
2023/01/20 01:55:52;;;;;;;;;25.00;14.50;;;;;5.83;62.87;100973.97;5089068;27;45635;-59
2023/01/20 01:58:23;;;;;;;;;23.75;18.50;;;;;5.90;62.60;100988.44;5092832;27;45528;-60
2023/01/20 02:00:49;;;;;;;;;25.50;17.50;;;;;5.80;62.59;100976.47;5074949;27;45684;-59
2023/01/20 02:03:15;;;;;;;;;22.25;19.00;;;;;5.79;61.85;100973.72;5099321;27;46342;-59
2023/01/20 02:05:42;;;;;;;;;22.00;18.25;;;;;5.61;62.45;100964.06;5095327;27;45488;-59
2023/01/20 02:08:08;;;;;;;;;20.75;17.50;;;;;5.77;62.61;100983.34;5096253;27;45369;-60
2023/01/20 02:10:34;;;;;;;;;22.00;20.50;;;;;5.74;62.55;100986.75;5094197;27;45349;-60
2023/01/20 02:13:00;;;;;;;;;27.25;22.00;;;;;5.75;62.57;100985.94;5092891;27;45601;-61
2023/01/20 02:15:33;;;;;;;;;22.00;19.00;;;;;5.81;62.33;100998.59;5088302;27;45516;-58
2023/01/20 02:18:15;;;;;;;;;21.50;19.75;;;;;5.79;62.96;100993.22;5084895;27;45559;-59
2023/01/20 02:20:47;;;;;;;;;22.50;21.00;;;;;5.83;62.64;101002.22;5095289;27;45289;-59
2023/01/20 02:23:42;;;;;;;;;24.50;19.50;;;;;5.82;62.98;100996.00;5093173;27;46283;-60
2023/01/20 02:26:51;;;;;;;;;27.00;20.50;;;;;5.82;62.96;100993.34;5095692;27;45311;-60
2023/01/20 02:29:35;;;;;;;;;33.25;19.50;;;;;5.81;63.10;100995.94;5095283;27;45388;-59
2023/01/20 02:32:00;;;;;;;;;22.75;21.75;;;;;5.88;62.94;101003.34;5095563;27;45467;-58
2023/01/20 02:34:43;;;;;;;;;30.00;24.75;;;;;5.90;62.67;101004.34;5096984;27;45331;-61
2023/01/20 02:37:14;;;;;;;;;27.75;21.50;;;;;5.85;63.08;101012.06;5091906;27;45693;-59
2023/01/20 02:40:11;;;;;;;;;30.00;26.75;;;;;5.93;63.33;101014.19;5079105;27;45402;-60
2023/01/20 02:42:42;;;;;;;;;31.25;25.00;;;;;5.90;63.21;101023.78;5091601;27;45448;-58
2023/01/20 02:45:19;;;;;;;;;24.25;19.25;;;;;5.90;63.49;101022.91;5088153;27;45754;-58
2023/01/20 02:48:27;;;;;;;;;33.00;31.75;;;;;5.90;63.44;101029.09;5103730;27;45412;-59
2023/01/20 02:51:00;;;;;;;;;28.25;25.25;;;;;5.75;63.79;101008.88;5094331;27;45290;-59
2023/01/20 02:53:32;;;;;;;;;26.75;22.00;;;;;5.75;63.82;101009.78;5108635;27;45398;-58
2023/01/20 02:55:58;;;;;;;;;29.50;22.75;;;;;5.87;63.12;101022.75;5100345;27;45809;-60
2023/01/20 02:58:39;;;;;;;;;26.25;22.00;;;;;5.88;63.24;101029.88;5107094;27;45591;-59
2023/01/20 03:01:11;;;;;;;;;22.75;19.25;;;;;5.79;62.69;101026.75;5112233;27;45150;-59
2023/01/20 03:03:40;;;;;;;;;29.00;20.75;;;;;5.80;63.20;101036.53;5108106;27;45089;-59
2023/01/20 03:06:12;;;;;;;;;32.25;23.25;;;;;5.80;62.63;101032.13;5110177;27;45486;-59
2023/01/20 03:08:39;;;;;;;;;18.75;14.75;;;;;5.75;62.76;101030.09;5107320;27;45362;-61
2023/01/20 03:11:07;;;;;;;;;26.25;23.25;;;;;5.78;63.30;101049.72;5105350;27;45477;-59
2023/01/20 03:13:42;;;;;;;;;24.25;21.50;;;;;5.72;63.40;101052.03;5098509;27;45449;-60
2023/01/20 03:16:19;;;;;;;;;15.75;14.25;;;;;5.68;63.96;101066.00;5105478;27;45538;-60
2023/01/20 03:18:45;;;;;;;;;25.75;18.25;;;;;5.51;63.66;101036.88;5074659;28;45747;-59
2023/01/20 03:21:12;;;;;;;;;19.25;17.75;;;;;5.65;62.56;101072.03;5094413;27;45553;-58
2023/01/20 03:23:44;;;;;;;;;12.00;11.00;;;;;5.69;63.46;101073.09;5094907;27;45627;-59
2023/01/20 03:26:12;;;;;;;;;16.00;12.50;;;;;5.73;62.88;101072.44;5094296;27;45588;-59
2023/01/20 03:28:37;;;;;;;;;19.00;15.25;;;;;5.58;62.72;101053.09;5094741;27;45409;-59
2023/01/20 03:31:17;;;;;;;;;21.25;13.00;;;;;5.57;63.11;101053.94;5090835;27;45294;-60
2023/01/20 03:33:46;;;;;;;;;24.00;15.75;;;;;5.70;62.92;101083.78;5094965;27;45432;-60
2023/01/20 03:36:15;;;;;;;;;17.75;15.25;;;;;5.68;62.93;101084.53;5090424;27;46203;-61
2023/01/20 03:38:42;;;;;;;;;22.00;14.25;;;;;5.61;63.13;101075.38;5102848;27;45644;-59
2023/01/20 03:41:48;;;;;;;;;19.00;16.50;;;;;5.63;63.17;101086.97;5113128;27;45262;-59
2023/01/20 03:44:28;;;;;;;;;15.75;12.50;;;;;5.59;63.22;101087.59;5080190;27;45640;-59
2023/01/20 03:47:14;;;;;;;;;20.25;13.00;;;;;5.64;63.48;101083.50;5094899;27;45512;-58
2023/01/20 03:50:08;;;;;;;;;22.50;18.25;;;;;5.69;63.38;101094.31;5094265;27;45329;-59
2023/01/20 03:52:54;;;;;;;;;18.00;14.00;;;;;5.72;62.84;101090.09;5088633;27;45515;-58
2023/01/20 03:55:53;;;;;;;;;18.00;14.00;;;;;5.70;62.35;101090.84;5110259;27;46059;-59
2023/01/20 03:58:26;;;;;;;;;20.25;14.50;;;;;5.47;62.69;101076.38;5100891;27;45326;-60
2023/01/20 04:00:52;;;;;;;;;18.50;13.50;;;;;5.61;62.87;101104.53;5107740;27;45161;-60
2023/01/20 04:03:25;;;;;;;;;14.75;14.25;;;;;5.63;63.29;101097.56;5111991;27;45131;-60
2023/01/20 04:05:50;;;;;;;;;25.00;15.75;;;;;5.53;63.01;101074.06;5111419;27;45008;-60
2023/01/20 04:08:21;;;;;;;;;21.25;15.50;;;;;5.66;63.23;101089.78;5111416;27;45048;-59
2023/01/20 04:10:47;;;;;;;;;20.25;14.50;;;;;5.72;63.17;101116.59;5108604;27;44978;-59
2023/01/20 04:13:13;;;;;;;;;25.25;20.75;;;;;5.61;63.65;101112.47;5109889;27;45310;-59
2023/01/20 04:15:43;;;;;;;;;28.50;19.75;;;;;5.56;64.06;101113.97;5112212;27;45198;-59
2023/01/20 04:18:18;;;;;;;;;25.50;20.75;;;;;5.49;64.31;101117.13;5109843;27;45692;-59
2023/01/20 04:20:46;;;;;;;;;23.25;20.50;;;;;5.47;64.03;101117.03;5112763;27;44937;-60
2023/01/20 04:23:24;;;;;;;;;30.50;17.25;;;;;5.37;64.05;101117.38;5112651;27;45139;-59
2023/01/20 04:25:49;;;;;;;;;29.00;21.00;;;;;5.29;63.93;101124.91;5112400;27;45198;-59
2023/01/20 04:28:14;;;;;;;;;24.25;20.00;;;;;5.20;64.30;101127.09;5111035;27;45951;-59
2023/01/20 04:30:39;;;;;;;;;18.25;15.75;;;;;5.15;64.63;101125.94;5110370;27;51396;-60
2023/01/20 04:33:05;;;;;;;;;19.50;15.25;;;;;5.11;64.29;101124.81;5114222;27;45112;-59
2023/01/20 04:35:30;;;;;;;;;26.50;20.50;;;;;5.07;64.15;101135.19;5108316;27;45107;-59
2023/01/20 04:37:55;;;;;;;;;20.00;18.25;;;;;4.79;65.09;101105.44;5110768;27;60598;-60
2023/01/20 04:40:21;;;;;;;;;20.25;14.00;;;;;4.72;64.99;101111.25;5105512;27;45161;-60
2023/01/20 04:42:46;;;;;;;;;26.00;19.00;;;;;4.70;65.66;101135.78;5112721;27;45116;-59
2023/01/20 04:45:16;;;;;;;;;23.00;18.50;;;;;4.77;65.51;101143.25;5112883;27;45136;-60
2023/01/20 04:47:42;;;;;;;;;19.00;13.25;;;;;4.80;65.51;101148.69;5111001;27;46066;-61
2023/01/20 04:50:09;;;;;;;;;26.00;24.00;;;;;4.79;66.35;101139.88;5095067;27;45194;-60
2023/01/20 04:52:34;;;;;;;;;24.50;17.50;;;;;4.80;65.49;101138.13;5109473;27;46166;-58
2023/01/20 04:54:59;;;;;;;;;21.25;16.00;;;;;4.86;65.17;101150.81;5109985;27;45150;-59
2023/01/20 04:57:25;;;;;;;;;22.25;14.75;;;;;4.00;64.92;101004.03;5104055;27;45703;-59
2023/01/20 04:59:50;;;;;;;;;22.75;18.00;;;;;4.84;65.63;101157.75;5109709;27;45992;-60
2023/01/20 05:02:15;;;;;;;;;21.75;16.00;;;;;4.77;65.28;101152.09;5112231;27;45213;-58
2023/01/20 05:04:41;;;;;;;;;19.00;17.75;;;;;4.79;65.68;101158.38;5111270;27;45419;-61
2023/01/20 05:07:06;;;;;;;;;16.00;14.00;;;;;4.74;65.92;101151.94;5112135;27;44953;-58
2023/01/20 05:09:32;;;;;;;;;22.50;19.50;;;;;4.64;65.52;101128.44;5111079;27;44999;-58
2023/01/20 05:11:57;;;;;;;;;2.00;1.50;;;;;4.84;65.66;101168.34;5110194;27;44976;-59
2023/01/20 05:14:23;;;;;;;;;18.00;16.50;;;;;4.85;65.69;101175.44;5112454;27;45109;-60
2023/01/20 05:17:03;;;;;;;;;26.50;18.50;;;;;4.84;65.13;101177.19;5088177;27;45583;-60
2023/01/20 05:19:29;;;;;;;;;17.25;13.75;;;;;4.78;64.68;101182.13;5112732;27;45114;-60
2023/01/20 05:21:54;;;;;;;;;25.50;18.50;;;;;4.68;64.60;101183.34;5115923;27;45276;-59
2023/01/20 05:24:19;;;;;;;;;21.00;16.25;;;;;4.69;64.82;101184.28;5115576;27;50597;-60
2023/01/20 05:26:45;;;;;;;;;22.75;18.00;;;;;4.69;65.24;101187.81;5113359;27;45275;-59
2023/01/20 05:29:10;;;;;;;;;27.25;23.00;;;;;4.73;65.13;101192.44;5095817;27;44977;-58
2023/01/20 05:31:37;;;;;;;;;20.75;16.50;;;;;4.46;64.88;101144.16;5110575;27;45231;-60
2023/01/20 05:34:03;;;;;;;;;25.75;18.00;;;;;4.69;64.52;101179.88;5114958;27;44945;-60
2023/01/20 05:36:29;;;;;;;;;20.75;16.25;;;;;4.74;64.85;101185.44;5112083;27;45752;-59
2023/01/20 05:38:54;;;;;;;;;19.75;18.00;;;;;4.64;65.04;101178.72;5107926;27;45194;-60
2023/01/20 05:41:19;;;;;;;;;22.75;17.50;;;;;4.52;64.78;101165.69;5108672;27;45273;-60
2023/01/20 05:43:45;;;;;;;;;24.50;21.75;;;;;4.63;64.56;101191.84;5112245;27;45337;-60
2023/01/20 05:46:10;;;;;;;;;23.00;17.50;;;;;4.65;65.31;101199.03;5103733;27;49033;-60
2023/01/20 05:48:36;;;;;;;;;21.00;18.25;;;;;4.61;64.76;101202.34;5111832;27;45333;-58
2023/01/20 05:51:01;;;;;;;;;28.00;21.50;;;;;4.53;65.22;101203.63;5112882;27;44997;-61
2023/01/20 05:53:26;;;;;;;;;33.25;25.25;;;;;4.34;65.62;101181.41;5110439;27;45294;-58
2023/01/20 05:56:03;;;;;;;;;26.50;19.75;;;;;4.55;65.67;101221.44;5103366;27;46795;-59
2023/01/20 05:58:29;;;;;;;;;20.75;18.25;;;;;4.61;65.18;101219.13;5099229;27;45509;-59
2023/01/20 06:01:02;;;;;;;;;29.25;23.00;;;;;4.65;65.85;101216.66;5095207;27;45445;-59
2023/01/20 06:03:27;;;;;;;;;30.25;26.75;;;;;4.60;65.41;101209.38;5099310;27;45611;-60
2023/01/20 06:05:58;;;;;;;;;25.50;22.50;;;;;4.46;64.97;101197.09;5097608;27;46265;-58
2023/01/20 06:08:24;;;;;;;;;20.25;18.50;;;;;4.63;64.60;101221.88;5095755;27;45526;-59
2023/01/20 06:10:52;;;;;;;;;29.00;22.50;;;;;4.64;64.88;101228.06;5076413;27;52791;-59
2023/01/20 06:13:17;;;;;;;;;29.25;23.50;;;;;4.49;64.69;101204.25;5092742;27;45427;-59
2023/01/20 06:15:42;;;;;;;;;26.75;24.00;;;;;4.57;65.86;101229.44;5093544;27;55211;-60
2023/01/20 06:18:11;;;;;;;;;27.25;23.25;;;;;4.59;65.16;101223.44;5076415;27;46120;-62
2023/01/20 06:20:37;;;;;;;;;30.75;21.75;;;;;4.27;64.82;101181.84;5094672;27;45390;-59
2023/01/20 06:23:02;;;;;;;;;27.00;23.50;;;;;4.37;65.00;101213.34;5095584;27;45355;-59
2023/01/20 06:25:28;;;;;;;;;23.50;21.25;;;;;4.37;65.77;101229.22;5100003;27;46612;-58
2023/01/20 06:27:53;;;;;;;;;26.50;23.00;;;;;4.40;65.78;101231.09;5096515;27;45342;-59
2023/01/20 06:30:18;;;;;;;;;26.75;21.25;;;;;4.08;65.07;101168.41;5095196;27;46182;-64
2023/01/20 06:32:47;;;;;;;;;21.75;17.00;;;;;4.35;65.14;101216.69;5094764;27;45774;-60
2023/01/20 06:35:13;;;;;;;;;29.25;22.75;;;;;4.43;65.66;101220.72;5088059;27;46160;-59
2023/01/20 06:37:38;;;;;;;;;28.75;22.00;;;;;4.40;65.30;101210.84;5097947;27;45396;-60
2023/01/20 06:40:04;;;;;;;;;27.00;24.00;;;;;4.47;64.98;101221.78;5089141;27;45400;-59
2023/01/20 06:42:30;;;;;;;;;28.75;22.25;;;;;4.49;65.30;101223.72;5099671;27;45551;-61
2023/01/20 06:44:56;;;;;;;;;18.25;16.75;;;;;4.48;65.68;101218.34;5107429;27;46151;-59
2023/01/20 06:47:21;;;;;;;;;31.25;21.50;;;;;4.55;64.72;101234.66;5091622;27;45248;-58
2023/01/20 06:49:46;;;;;;;;;32.75;25.50;;;;;4.45;65.60;101220.81;5110483;27;45159;-60
2023/01/20 06:52:12;;;;;;;;;33.25;22.25;;;;;4.61;65.80;101242.94;5099376;27;45347;-61
2023/01/20 06:54:37;;;;;;;;;21.50;18.00;;;;;4.58;64.68;101237.47;5093883;27;46024;-60
2023/01/20 06:57:03;;;;;;;;;35.00;28.75;;;;;4.65;64.31;101237.84;5092821;27;45329;-59
2023/01/20 06:59:28;;;;;;;;;18.50;18.00;;;;;4.58;64.45;101218.94;5095740;27;45350;-59
2023/01/20 07:01:53;;;;;;;;;24.00;20.50;;;;;4.69;64.76;101245.16;5095056;27;45368;-60
2023/01/20 07:04:18;;;;;;;;;25.00;20.50;;;;;4.59;63.95;101243.69;5094648;27;54272;-61
2023/01/20 07:06:44;;;;;;;;;21.25;18.00;;;;;4.69;64.27;101258.38;5094533;27;45488;-61
2023/01/20 07:09:11;;;;;;;;;26.25;22.25;;;;;4.74;64.06;101262.19;5095223;27;45433;-59
2023/01/20 07:11:37;;;;;;;;;33.75;25.50;;;;;4.57;64.56;101224.16;5094106;27;45422;-58
2023/01/20 07:14:04;;;;;;;;;24.75;23.00;;;;;4.84;63.42;101268.94;5083357;27;45532;-59
2023/01/20 07:16:29;;;;;;;;;25.50;20.50;;;;;4.79;63.58;101258.09;5075011;27;45445;-60
2023/01/20 07:18:55;;;;;;;;;29.00;24.00;;;;;4.89;63.85;101276.31;5058815;27;45751;-61
2023/01/20 07:21:20;;;;;;;;;27.25;19.25;;;;;4.93;62.98;101282.69;5057304;27;45505;-60
2023/01/20 07:23:46;;;;;;;;;37.75;33.00;;;;;4.86;63.88;101268.19;5082449;27;45639;-59
2023/01/20 07:26:15;;;;;;;;;30.50;24.25;;;;;4.86;62.40;101278.78;5080742;27;46130;-60
2023/01/20 07:28:40;;;;;;;;;28.25;22.25;;;;;4.91;62.46;101279.06;5076065;27;45413;-59
2023/01/20 07:31:10;;;;;;;;;33.75;27.50;;;;;4.98;63.37;101286.50;5070448;27;45457;-60
2023/01/20 07:33:36;;;;;;;;;35.50;27.50;;;;;5.02;62.90;101290.28;5077623;27;45409;-59
2023/01/20 07:36:02;;;;;;;;;28.25;22.75;;;;;5.05;63.05;101294.00;5059569;28;45565;-62
2023/01/20 07:38:28;;;;;;;;;28.75;24.00;;;;;5.03;62.98;101287.69;5077660;27;45494;-59
2023/01/20 07:40:58;;;;;;;;;35.50;24.25;;;;;5.03;62.33;101289.44;5090912;27;45285;-59
2023/01/20 07:43:23;;;;;;;;;29.25;21.50;;;;;5.01;62.23;101289.34;5080164;27;46670;-61
2023/01/20 07:45:48;;;;;;;;;36.50;24.00;;;;;5.01;62.27;101284.03;5053189;28;45576;-63
2023/01/20 07:48:14;;;;;;;;;28.00;23.75;;;;;4.91;62.73;101290.53;5074726;27;45554;-60
2023/01/20 07:50:39;;;;;;;;;28.25;23.25;;;;;5.00;62.33;101306.06;5076349;27;45442;-59
2023/01/20 07:53:05;;;;;;;;;30.75;19.50;;;;;5.11;62.30;101322.56;5078309;27;45709;-61
2023/01/20 07:55:32;;;;;;;;;32.00;24.50;;;;;5.14;62.39;101320.09;5081889;27;45504;-61
2023/01/20 07:57:57;;;;;;;;;27.75;24.50;;;;;5.14;62.05;101312.16;5096303;27;45659;-62
2023/01/20 08:00:23;;;;;;;;;28.25;25.50;;;;;5.21;62.60;101311.66;5095212;27;45545;-60
2023/01/20 08:02:48;;;;;;;;;22.50;20.50;;;;;5.25;61.37;101320.72;5097446;27;45681;-60
2023/01/20 08:05:14;;;;;;;;;20.00;14.25;;;;;5.27;61.29;101319.06;5085058;27;45300;-61
2023/01/20 08:07:39;;;;;;;;;23.25;19.00;;;;;5.20;61.62;101306.28;5093503;27;45364;-59
2023/01/20 08:10:05;;;;;;;;;24.50;20.25;;;;;5.27;61.56;101311.13;5090512;27;45106;-61
2023/01/20 08:12:30;;;;;;;;;26.75;24.00;;;;;5.23;61.24;101293.22;5096120;27;45326;-61
2023/01/20 08:14:56;;;;;;;;;38.00;29.00;;;;;5.38;60.97;101319.66;5094648;28;56490;-60
2023/01/20 08:17:23;;;;;;;;;29.50;23.75;;;;;5.41;61.34;101318.13;5095484;28;45165;-61
2023/01/20 08:19:48;;;;;;;;;31.00;23.50;;;;;5.35;60.81;101313.38;5091129;27;45261;-61
2023/01/20 08:22:14;;;;;;;;;25.25;22.75;;;;;5.42;60.73;101316.38;5070793;28;45370;-61
2023/01/20 08:24:39;;;;;;;;;24.25;19.00;;;;;5.41;60.58;101326.06;5081639;28;45532;-61
2023/01/20 08:27:05;;;;;;;;;27.00;19.75;;;;;5.29;60.32;101315.66;5079445;28;45366;-61
2023/01/20 08:29:32;;;;;;;;;13.50;13.25;;;;;5.34;60.76;101329.19;5080411;28;45793;-61
2023/01/20 08:31:59;;;;;;;;;18.50;12.75;;;;;5.24;60.76;101301.25;5086037;28;46285;-61
2023/01/20 08:34:24;;;;;;;;;27.50;19.00;;;;;5.44;60.55;101328.88;5077325;27;45367;-61
2023/01/20 08:36:52;;;;;;;;;23.00;20.75;;;;;5.22;60.54;101291.41;5076401;28;45428;-60
2023/01/20 08:39:19;;;;;;;;;24.50;21.25;;;;;5.53;60.53;101336.44;5076963;28;45368;-61
2023/01/20 08:41:46;;;;;;;;;24.50;18.75;;;;;5.55;60.20;101334.78;5067969;28;45624;-62
2023/01/20 08:44:12;;;;;;;;;25.50;20.50;;;;;5.58;59.65;101342.91;5074517;28;45773;-60
2023/01/20 08:46:38;;;;;;;;;34.00;24.25;;;;;5.58;59.66;101342.91;5074235;28;45611;-61
2023/01/20 08:49:08;;;;;;;;;17.25;15.75;;;;;5.56;58.89;101343.63;5077209;28;45447;-60
2023/01/20 08:51:33;;;;;;;;;17.00;14.75;;;;;5.41;59.23;101325.13;5076993;28;45520;-61
2023/01/20 08:54:00;;;;;;;;;14.25;13.50;;;;;5.41;59.10;101326.06;5074150;28;45453;-60
2023/01/20 08:56:26;;;;;;;;;14.75;14.00;;;;;5.19;58.86;101299.19;5066776;28;45526;-61
2023/01/20 08:58:52;;;;;;;;;14.00;14.00;;;;;5.48;59.34;101344.13;5067700;28;45559;-60
2023/01/20 09:01:26;;;;;;;;;16.00;14.75;;;;;5.49;59.64;101337.09;5070619;28;46163;-63
2023/01/20 09:03:52;;;;;;;;;18.25;14.00;;;;;5.54;59.10;101340.91;5072664;27;45300;-61
2023/01/20 09:06:20;;;;;;;;;19.75;16.75;;;;;5.29;59.91;101301.50;5074625;27;45466;-62
2023/01/20 09:08:45;;;;;;;;;19.50;17.50;;;;;5.57;60.20;101348.13;5072617;28;45551;-62
2023/01/20 09:11:13;;;;;;;;;17.75;14.50;;;;;5.57;59.64;101351.69;5075602;27;45417;-61
2023/01/20 09:13:39;;;;;;;;;13.50;10.50;;;;;5.37;60.07;101333.75;5074433;27;45675;-62
2023/01/20 09:16:05;;;;;;;;;18.50;15.50;;;;;5.51;60.42;101372.53;5071726;27;45382;-62
2023/01/20 09:18:31;;;;;;;;;13.50;13.00;;;;;5.47;61.17;101371.44;5043304;28;45613;-62
2023/01/20 09:20:58;;;;;;;;;14.00;13.00;;;;;5.42;60.85;101356.13;5076493;28;45498;-62
2023/01/20 09:23:24;;;;;;;;;24.75;18.00;;;;;5.54;61.36;101370.97;5066342;27;45343;-62
2023/01/20 09:25:49;;;;;;;;;12.25;12.00;;;;;5.63;60.88;101369.69;5073758;27;45408;-62
2023/01/20 09:28:14;;;;;;;;;13.75;9.00;;;;;5.67;60.51;101376.97;5075565;27;45413;-63
2023/01/20 09:30:41;;;;;;;;;17.50;13.75;;;;;5.63;60.51;101367.94;5077666;27;45296;-61
2023/01/20 09:33:08;;;;;;;;;10.25;8.00;;;;;5.67;60.74;101377.88;5053872;27;45650;-60
2023/01/20 09:35:33;;;;;;;;;13.00;8.25;;;;;5.68;60.39;101385.00;5075690;27;45616;-64
2023/01/20 09:44:21;;;;;;;;;10.00;10.00;;;;;5.80;60.96;101395.38;5072797;28;45418;-62
2023/01/20 09:47:19;;;;;;;;;12.25;9.25;;;;;5.80;60.78;101386.53;5048733;28;45466;-61
2023/01/20 09:53:05;;;;;;;;;11.75;7.25;;;;;5.89;61.05;101389.69;5070821;28;45726;-61
2023/01/20 09:55:40;;;;;;;;;13.00;12.00;;;;;5.90;61.66;101396.81;5077036;28;46258;-64
2023/01/20 09:58:05;;;;;;;;;6.50;4.00;;;;;5.97;61.75;101396.34;5058435;28;45420;-62
2023/01/20 10:00:34;;;;;;;;;12.00;10.00;;;;;5.91;61.42;101375.69;5075715;28;45645;-63
2023/01/20 10:03:10;;;;;;;;;11.25;8.50;;;;;5.75;61.60;101353.53;5073314;28;46600;-63
2023/01/20 10:05:38;;;;;;;;;8.25;6.50;;;;;6.05;61.80;101400.34;5074798;28;45623;-62
2023/01/20 10:08:26;;;;;;;;;9.00;9.00;;;;;6.10;61.51;101392.63;5075545;28;45349;-63
2023/01/20 10:11:05;;;;;;;;;8.75;8.00;;;;;6.13;61.32;101389.25;5076082;28;45580;-61
2023/01/20 10:13:54;;;;;;;;;9.50;6.50;;;;;6.06;61.16;101385.34;5080467;28;46337;-61
2023/01/20 10:16:32;;;;;;;;;13.50;13.50;;;;;5.88;61.73;101350.75;5084086;28;45298;-61
2023/01/20 10:19:13;;;;;;;;;8.75;6.75;;;;;6.16;61.67;101400.03;5072019;28;45346;-60
2023/01/20 10:21:53;;;;;;;;;14.00;7.00;;;;;6.17;62.26;101400.13;5089457;28;44997;-62
2023/01/20 10:24:30;;;;;;;;;10.00;7.50;;;;;6.26;61.79;101399.69;5071907;28;46380;-61
2023/01/20 10:27:00;;;;;;;;;14.50;9.00;;;;;6.35;61.77;101399.28;5056260;28;45417;-61
2023/01/20 10:29:40;;;;;;;;;9.75;9.00;;;;;6.39;61.81;101412.78;5075166;28;45544;-62
2023/01/20 10:32:23;;;;;;;;;10.00;8.00;;;;;6.43;61.94;101405.91;5073859;28;45436;-61
2023/01/20 10:34:53;;;;;;;;;7.25;7.00;;;;;6.36;61.74;101391.41;5071662;28;45726;-61
2023/01/20 10:37:21;;;;;;;;;7.25;4.75;;;;;6.43;61.74;101414.81;5054919;28;45342;-60
2023/01/20 10:39:53;;;;;;;;;15.50;11.25;;;;;6.39;61.31;101412.78;5066766;28;45452;-64
2023/01/20 10:42:19;;;;;;;;;9.00;8.00;;;;;6.51;62.06;101415.19;5069905;28;45461;-60
2023/01/20 10:44:47;;;;;;;;;8.25;4.75;;;;;6.52;61.02;101410.81;5072899;28;47005;-60
2023/01/20 10:47:19;;;;;;;;;8.00;7.00;;;;;6.51;60.78;101414.28;5074546;28;45386;-62
2023/01/20 10:50:05;;;;;;;;;4.25;2.75;;;;;6.50;60.54;101410.75;5074668;28;45450;-61
2023/01/20 10:52:58;;;;;;;;;4.25;4.25;;;;;6.49;59.87;101410.66;5068470;28;45300;-62
2023/01/20 10:55:45;;;;;;;;;9.25;9.00;;;;;6.52;60.06;101408.16;5073117;28;46339;-63
2023/01/20 10:58:10;;;;;;;;;8.00;8.00;;;;;6.49;59.61;101408.00;5072902;28;45615;-63
2023/01/20 11:00:38;;;;;;;;;6.25;5.75;;;;;6.45;59.51;101405.16;5054229;28;45438;-62
2023/01/20 11:03:09;;;;;;;;;10.00;8.50;;;;;6.45;59.35;101405.16;5078132;28;45602;-63
2023/01/20 11:05:37;;;;;;;;;10.00;9.00;;;;;6.48;59.66;101400.84;5051904;28;47300;-60
2023/01/20 11:08:13;;;;;;;;;7.25;7.25;;;;;6.16;58.94;101346.97;5078709;28;45648;-62
2023/01/20 11:10:38;;;;;;;;;9.00;8.00;;;;;6.30;58.99;101366.28;5071705;27;45529;-63
2023/01/20 11:13:04;;;;;;;;;9.25;8.50;;;;;6.44;59.05;101406.00;5077294;27;45800;-61
2023/01/20 11:15:34;;;;;;;;;7.25;7.25;;;;;6.44;58.69;101392.72;5075217;27;45493;-62
2023/01/20 11:18:14;;;;;;;;;8.50;5.25;;;;;6.49;58.64;101405.34;5084087;27;45506;-61
2023/01/20 11:20:51;;;;;;;;;8.00;7.00;;;;;6.51;58.19;101409.88;5080143;27;45320;-62
2023/01/20 11:23:34;;;;;;;;;7.25;7.25;;;;;6.60;58.68;101412.09;5059400;27;45485;-62
2023/01/20 11:26:09;;;;;;;;;9.75;8.00;;;;;6.66;58.36;101399.16;5074935;27;47027;-60
2023/01/20 11:29:03;;;;;;;;;15.25;9.00;;;;;6.76;58.12;101409.44;5079460;27;45321;-63
2023/01/20 11:31:46;;;;;;;;;14.50;9.00;;;;;6.81;57.53;101404.38;5068504;27;45460;-61
2023/01/20 11:34:23;;;;;;;;;12.75;12.75;;;;;6.87;57.37;101406.44;5079365;27;45425;-63
2023/01/20 11:37:08;;;;;;;;;17.50;13.75;;;;;6.95;57.41;101399.78;5070708;27;45962;-62
2023/01/20 11:39:49;;;;;;;;;12.00;8.50;;;;;7.09;57.09;101412.00;5063112;27;45447;-61